createdAt,value
2023-04-14T00:03:23.405Z,5.98
2023-04-14T00:08:25.074Z,5.79
2023-04-14T00:13:26.622Z,5.60
2023-04-14T00:18:28.323Z,5.44
2023-04-14T00:23:29.881Z,5.30
2023-04-14T00:28:31.398Z,5.21
2023-04-14T00:33:33.084Z,5.23
2023-04-14T00:38:36.398Z,5.17
2023-04-14T00:43:38.058Z,5.18
2023-04-14T00:48:40.149Z,5.33
2023-04-14T00:53:42.519Z,5.31
2023-04-14T00:58:44.696Z,5.12
2023-04-14T01:03:46.559Z,5.06
2023-04-14T01:08:51.377Z,4.92
2023-04-14T01:13:59.424Z,4.86
2023-04-14T01:19:16.595Z,4.82
2023-04-14T01:24:47.352Z,4.88
2023-04-14T01:30:00.227Z,4.82
2023-04-14T01:35:13.102Z,4.93
2023-04-14T01:40:17.108Z,5.00
2023-04-14T01:45:24.408Z,4.95
2023-04-14T01:50:28.465Z,5.01
2023-04-14T01:55:33.240Z,5.04
2023-04-14T02:00:36.173Z,5.01
2023-04-14T02:05:40.066Z,4.93
2023-04-14T02:10:45.801Z,4.73
2023-04-14T02:15:50.946Z,4.62
2023-04-14T02:20:56.112Z,4.61
2023-04-14T02:26:02.598Z,4.64
2023-04-14T02:31:11.450Z,4.51
2023-04-14T02:36:19.180Z,4.59
2023-04-14T02:41:25.403Z,4.53
2023-04-14T02:46:31.780Z,4.40
2023-04-14T02:51:36.392Z,4.39
2023-04-14T02:56:38.697Z,4.49
2023-04-14T03:01:41.853Z,4.76
2023-04-14T03:06:44.522Z,4.55
2023-04-14T03:11:46.696Z,4.43
2023-04-14T03:16:53.537Z,4.30
2023-04-14T03:21:56.606Z,4.18
2023-04-14T03:27:04.738Z,4.25
2023-04-14T03:32:08.306Z,4.34
2023-04-14T03:37:15.591Z,4.25
2023-04-14T03:42:19.929Z,4.08
2023-04-14T03:47:22.228Z,3.99
2023-04-14T03:52:29.644Z,3.91
2023-04-14T03:57:31.665Z,3.90
2023-04-14T04:02:34.936Z,4.09
2023-04-14T04:07:39.989Z,4.26
2023-04-14T04:12:43.715Z,4.28
2023-04-14T04:17:49.204Z,3.97
2023-04-14T04:22:54.770Z,3.96
2023-04-14T04:27:56.586Z,3.82
2023-04-14T04:33:01.938Z,3.72
2023-04-14T04:38:03.751Z,3.74
2023-04-14T04:43:05.933Z,4.03
2023-04-14T04:48:08.094Z,4.03
2023-04-14T04:53:09.906Z,4.10
2023-04-14T04:58:11.540Z,4.02
2023-04-14T05:03:13.166Z,3.89
2023-04-14T05:08:15.413Z,3.78
2023-04-14T05:13:17.047Z,3.79
2023-04-14T05:18:18.970Z,3.98
2023-04-14T05:23:20.499Z,4.31
2023-04-14T05:28:22.041Z,4.53
2023-04-14T05:33:23.675Z,4.84
2023-04-14T05:38:25.302Z,5.11
2023-04-14T05:43:26.809Z,5.11
2023-04-14T05:48:28.373Z,5.42
2023-04-14T05:53:29.910Z,5.88
2023-04-14T05:58:31.530Z,6.85
2023-04-14T06:03:33.276Z,7.55
2023-04-14T06:08:34.964Z,8.03
2023-04-14T06:13:36.722Z,7.94
2023-04-14T06:18:38.281Z,8.17
2023-04-14T06:23:39.844Z,8.26
2023-04-14T06:28:43.725Z,8.39
2023-04-14T06:33:45.596Z,8.53
2023-04-14T06:38:47.133Z,7.95
2023-04-14T06:43:48.708Z,9.58
2023-04-14T06:48:50.273Z,10.34
2023-04-14T06:53:51.806Z,9.93
2023-04-14T06:58:53.479Z,9.73
2023-04-14T07:03:55.108Z,10.65
2023-04-14T07:08:56.704Z,11.18
2023-04-14T07:13:58.422Z,11.66
2023-04-14T07:18:59.960Z,10.39
2023-04-14T07:24:02.044Z,10.92
2023-04-14T07:29:03.931Z,10.04
2023-04-14T07:34:06.009Z,10.29
2023-04-14T07:39:07.581Z,11.38
2023-04-14T07:44:09.288Z,12.27
2023-04-14T07:49:10.832Z,12.34
2023-04-14T07:54:12.308Z,13.68
2023-04-14T07:59:13.887Z,13.98
2023-04-14T08:04:15.548Z,14.83
2023-04-14T08:09:17.517Z,15.20
2023-04-14T08:14:19.112Z,13.48
2023-04-14T08:19:20.684Z,13.97
2023-04-14T08:24:22.337Z,14.33
2023-04-14T08:29:27.115Z,13.71
2023-04-14T08:34:28.961Z,14.76
2023-04-14T08:39:30.640Z,14.25
2023-04-14T08:44:32.400Z,15.91
2023-04-14T08:49:42.097Z,14.57
2023-04-14T08:54:47.474Z,15.38
2023-04-14T08:59:49.946Z,16.09
2023-04-14T09:04:52.966Z,16.07
2023-04-14T09:09:55.761Z,14.41
2023-04-14T09:14:58.995Z,16.71
2023-04-14T09:20:36.397Z,16.03
2023-04-14T09:25:22.329Z,16.56
2023-04-14T09:30:24.075Z,16.65
2023-04-14T09:35:44.094Z,17.71
2023-04-14T09:40:45.679Z,16.66
2023-04-14T09:45:47.253Z,17.05
2023-04-14T09:51:06.704Z,15.78
2023-04-14T09:56:12.437Z,18.66
2023-04-14T10:01:18.388Z,17.08
2023-04-14T10:06:21.820Z,17.62
2023-04-14T10:11:26.108Z,17.83
2023-04-14T10:16:27.764Z,18.75
2023-04-14T10:21:29.666Z,17.88
2023-04-14T10:26:31.702Z,17.85
2023-04-14T10:31:37.684Z,17.36
2023-04-14T10:36:39.900Z,18.81
2023-04-14T10:41:44.490Z,20.06
2023-04-14T10:46:46.336Z,18.55
2023-04-14T10:51:49.780Z,20.22
2023-04-14T10:57:12.716Z,20.13
2023-04-14T11:02:34.176Z,21.13
2023-04-14T11:07:46.421Z,21.33
2023-04-14T11:12:54.325Z,21.19
2023-04-14T11:18:11.706Z,20.71
2023-04-14T11:23:14.579Z,19.86
2023-04-14T11:28:16.110Z,21.85
2023-04-14T11:33:19.055Z,20.76
2023-04-14T11:38:20.842Z,21.87
2023-04-14T11:43:23.612Z,21.27
2023-04-14T11:48:27.996Z,21.08
2023-04-14T11:53:29.670Z,20.80
2023-04-14T11:58:31.381Z,21.82
2023-04-14T12:03:33.213Z,21.92
2023-04-14T12:08:34.868Z,20.52
2023-04-14T12:13:40.675Z,20.87
2023-04-14T12:18:43.475Z,20.74
2023-04-14T12:23:46.787Z,21.99
2023-04-14T12:28:55.994Z,20.95
2023-04-14T12:34:04.151Z,21.55
2023-04-14T12:39:08.062Z,19.95
2023-04-14T12:44:17.358Z,20.28
2023-04-14T12:49:30.871Z,20.22
2023-04-14T12:54:51.167Z,21.49
2023-04-14T12:59:52.802Z,21.84
2023-04-14T13:04:54.538Z,21.62
2023-04-14T13:09:56.924Z,22.37
2023-04-14T13:14:58.656Z,18.61
2023-04-14T13:20:00.759Z,19.04
2023-04-14T13:25:02.307Z,19.56
2023-04-14T13:30:04.340Z,19.80
2023-04-14T13:35:06.248Z,21.62
2023-04-14T13:40:08.701Z,21.98
2023-04-14T13:45:10.357Z,20.92
2023-04-14T13:50:11.948Z,21.94
2023-04-14T13:55:13.876Z,21.25
2023-04-14T14:00:15.737Z,21.19
2023-04-14T14:05:17.372Z,19.77
2023-04-14T14:10:19.056Z,19.14
2023-04-14T14:15:20.611Z,19.84
2023-04-14T14:20:22.118Z,19.27
2023-04-14T14:25:23.769Z,19.65
2023-04-14T14:30:25.523Z,18.56
2023-04-14T14:35:27.070Z,19.14
2023-04-14T14:40:29.287Z,19.63
2023-04-14T14:45:33.041Z,19.46
2023-04-14T14:50:34.917Z,20.69
2023-04-14T14:55:36.380Z,21.22
2023-04-14T15:00:38.997Z,20.96
2023-04-14T15:05:40.596Z,21.60
2023-04-14T15:10:42.230Z,23.10
2023-04-14T15:15:43.788Z,23.79
2023-04-14T15:20:46.868Z,21.20
2023-04-14T15:25:48.489Z,21.91
2023-04-14T15:30:50.017Z,21.92
2023-04-14T15:35:51.704Z,21.56
2023-04-14T15:40:53.956Z,22.45
2023-04-14T15:45:55.571Z,22.16
2023-04-14T15:50:57.169Z,21.72
2023-04-14T15:55:58.814Z,21.63
2023-04-14T16:01:00.414Z,22.35
2023-04-14T16:06:02.853Z,21.62
2023-04-14T16:11:04.435Z,20.36
2023-04-14T16:16:06.353Z,20.80
2023-04-14T16:21:08.411Z,20.76
2023-04-14T16:26:10.048Z,20.71
2023-04-14T16:31:11.808Z,19.80
2023-04-14T16:36:13.351Z,19.75
2023-04-14T16:41:14.867Z,19.98
2023-04-14T16:46:16.425Z,20.45
2023-04-14T16:51:18.125Z,19.81
2023-04-14T16:56:19.639Z,19.83
2023-04-14T17:01:21.320Z,19.54
2023-04-14T17:06:23.163Z,19.55
2023-04-14T17:11:24.737Z,19.83
2023-04-14T17:16:26.498Z,19.55
2023-04-14T17:21:28.319Z,19.60
2023-04-14T17:26:29.846Z,18.80
2023-04-14T17:31:31.584Z,17.65
2023-04-14T17:36:33.827Z,16.87
2023-04-14T17:41:35.680Z,16.33
2023-04-14T17:46:37.169Z,15.89
2023-04-14T17:51:38.878Z,15.43
2023-04-14T17:56:40.482Z,14.93
2023-04-14T18:01:42.239Z,14.52
2023-04-14T18:06:44.066Z,14.24
2023-04-14T18:11:45.579Z,14.03
2023-04-14T18:16:47.257Z,13.89
2023-04-14T18:21:48.890Z,13.49
2023-04-14T18:26:50.410Z,13.18
2023-04-14T18:31:51.949Z,12.83
2023-04-14T18:36:53.597Z,12.71
2023-04-14T18:41:55.104Z,12.43
2023-04-14T18:46:56.655Z,12.27
2023-04-14T18:51:58.284Z,12.22
2023-04-14T18:57:00.527Z,12.07
2023-04-14T19:02:02.185Z,11.69
2023-04-14T19:07:03.774Z,11.46
2023-04-14T19:12:05.461Z,11.30
2023-04-14T19:17:07.633Z,11.19
2023-04-14T19:22:09.297Z,11.00
2023-04-14T19:27:10.881Z,10.88
2023-04-14T19:32:12.439Z,11.06
2023-04-14T19:37:14.055Z,11.04
2023-04-14T19:42:15.640Z,10.75
2023-04-14T19:47:17.390Z,10.57
2023-04-14T19:52:18.889Z,10.54
2023-04-14T19:57:20.616Z,10.55
2023-04-14T20:02:22.302Z,10.55
2023-04-14T20:07:29.660Z,10.44
2023-04-14T20:12:31.237Z,10.61
2023-04-14T20:17:32.856Z,10.88
2023-04-14T20:22:34.476Z,11.44
2023-04-14T20:27:36.191Z,11.67
2023-04-14T20:32:37.926Z,11.77
2023-04-14T20:37:39.576Z,11.57
2023-04-14T20:42:41.135Z,10.98
2023-04-14T20:47:42.985Z,10.34
2023-04-14T20:52:45.152Z,10.14
2023-04-14T20:57:47.514Z,9.90
2023-04-14T21:02:49.259Z,9.59
2023-04-14T21:07:50.858Z,9.57
2023-04-14T21:15:30.387Z,9.56
2023-04-14T21:18:13.906Z,9.31
2023-04-14T21:23:15.577Z,9.29
2023-04-14T21:28:17.253Z,9.48
2023-04-14T21:33:18.809Z,9.40
2023-04-14T21:38:20.444Z,9.35
2023-04-14T21:43:22.073Z,9.26
2023-04-14T21:48:23.735Z,9.24
2023-04-14T21:53:25.290Z,9.29
2023-04-14T21:58:26.932Z,9.22
2023-04-14T22:03:28.770Z,9.19
2023-04-14T22:08:30.354Z,9.19
2023-04-14T22:13:31.858Z,9.25
2023-04-14T22:18:33.456Z,9.16
2023-04-14T22:23:35.069Z,8.92
2023-04-14T22:28:37.154Z,8.65
2023-04-14T22:33:39.081Z,8.53
2023-04-14T22:38:40.642Z,8.32
2023-04-14T22:43:42.577Z,8.16
2023-04-14T22:48:44.476Z,8.12
2023-04-14T22:53:46.086Z,7.93
2023-04-14T22:58:47.611Z,7.88
2023-04-14T23:03:49.278Z,7.59
2023-04-14T23:08:51.521Z,7.57
2023-04-14T23:13:53.034Z,7.54
2023-04-14T23:18:54.570Z,7.57
2023-04-14T23:23:56.097Z,7.81
2023-04-14T23:28:57.618Z,7.82
2023-04-14T23:33:59.168Z,7.54
2023-04-14T23:39:01.019Z,7.19
2023-04-14T23:44:02.687Z,7.04
2023-04-14T23:49:24.149Z,6.88
2023-04-14T23:54:25.839Z,6.86
2023-04-14T23:59:27.378Z,6.71
